Time;durP1;ratioP1;P1;durP2;ratioP2;P2;SDS_P1;SDS_P2;PMS_P1;PMS_P2;Temp;Humidity;BMP_temperature;BMP_pressure;BME280_temperature;BME280_humidity;BME280_pressure;Samples;Min_cycle;Max_cycle;Signal;HPM_P1;HPM_P2
2021/10/01 00:00:29;;;;;;;24.17;17.60;;;15.70;99.90;;;;;;5093475;28;20677;-65
2021/10/01 00:02:55;;;;;;;28.80;18.83;;;15.70;99.90;;;;;;5093583;28;20561;-67
2021/10/01 00:05:21;;;;;;;25.73;17.80;;;15.70;99.90;;;;;;5093524;28;20192;-64
2021/10/01 00:07:49;;;;;;;21.70;16.10;;;15.70;99.90;;;;;;5093985;28;20172;-66
2021/10/01 00:10:15;;;;;;;23.27;17.30;;;15.80;99.90;;;;;;5075298;28;20500;-67
2021/10/01 00:12:40;;;;;;;22.33;16.87;;;15.80;99.90;;;;;;5094055;28;20419;-65
2021/10/01 00:15:07;;;;;;;24.87;17.93;;;15.80;99.90;;;;;;5096078;28;20956;-64
2021/10/01 00:17:32;;;;;;;20.13;15.90;;;15.80;99.90;;;;;;5100314;28;20253;-64
2021/10/01 00:19:58;;;;;;;29.67;20.63;;;15.70;99.90;;;;;;5100126;28;20425;-64
2021/10/01 00:22:24;;;;;;;34.17;24.50;;;15.70;99.90;;;;;;5100557;28;20175;-64
2021/10/01 00:24:50;;;;;;;33.03;23.40;;;15.70;99.90;;;;;;5100092;28;20196;-67
2021/10/01 00:27:18;;;;;;;28.20;20.70;;;15.70;99.90;;;;;;5100530;28;20478;-67
2021/10/01 00:29:44;;;;;;;24.13;17.10;;;15.70;99.90;;;;;;5081733;28;20473;-64
2021/10/01 00:32:10;;;;;;;24.43;18.90;;;15.70;99.90;;;;;;5100603;28;20478;-64
2021/10/01 00:34:36;;;;;;;26.63;17.80;;;15.70;99.90;;;;;;5081721;28;20429;-66
2021/10/01 00:37:03;;;;;;;27.90;18.00;;;15.70;99.90;;;;;;5100233;28;20431;-64
2021/10/01 00:39:28;;;;;;;23.30;15.90;;;15.70;99.90;;;;;;5099934;28;20267;-64
2021/10/01 00:41:54;;;;;;;23.30;18.60;;;15.70;99.90;;;;;;5100314;28;20418;-64
2021/10/01 00:44:19;;;;;;;22.50;17.00;;;15.70;99.90;;;;;;5100041;28;20202;-66
2021/10/01 00:46:45;;;;;;;22.97;16.53;;;15.70;99.90;;;;;;5099935;28;20211;-66
2021/10/01 00:49:11;;;;;;;25.10;15.87;;;15.70;99.90;;;;;;5099814;28;20288;-66
2021/10/01 00:51:39;;;;;;;21.77;16.43;;;15.70;99.90;;;;;;5100187;28;20187;-64
2021/10/01 00:54:05;;;;;;;21.53;15.27;;;15.70;99.90;;;;;;5099867;28;20283;-65
2021/10/01 00:56:31;;;;;;;24.70;17.13;;;15.70;99.90;;;;;;5081909;28;20388;-64
2021/10/01 00:58:57;;;;;;;21.00;15.23;;;15.70;99.90;;;;;;5099785;28;20400;-67
2021/10/01 01:01:23;;;;;;;25.37;16.70;;;15.70;99.90;;;;;;5081628;28;20455;-66
2021/10/01 01:03:55;;;;;;;18.80;15.80;;;15.70;99.90;;;;;;5099643;28;20197;-67
2021/10/01 01:06:32;;;;;;;22.70;15.80;;;15.70;99.90;;;;;;5100030;28;20180;-66
2021/10/01 01:09:09;;;;;;;24.03;16.87;;;15.70;99.90;;;;;;5099717;28;20819;-66
2021/10/01 01:11:59;;;;;;;20.67;15.90;;;15.70;99.90;;;;;;5100059;28;20412;-66
2021/10/01 01:14:57;;;;;;;21.83;15.73;;;15.70;99.90;;;;;;5099823;28;20428;-64
2021/10/01 01:17:32;;;;;;;27.53;17.10;;;15.70;99.90;;;;;;5099367;28;20970;-64
2021/10/01 01:20:21;;;;;;;24.30;17.17;;;15.70;99.90;;;;;;5099650;28;20420;-64
2021/10/01 01:23:24;;;;;;;24.80;17.30;;;15.70;99.90;;;;;;5099667;28;20725;-64
2021/10/01 01:26:23;;;;;;;21.40;16.07;;;15.70;99.90;;;;;;5080609;28;20433;-67
2021/10/01 01:29:09;;;;;;;20.50;15.60;;;15.70;99.90;;;;;;5096283;28;20468;-67
2021/10/01 01:31:47;;;;;;;22.83;16.30;;;15.70;99.90;;;;;;5078114;28;20421;-66
2021/10/01 01:34:21;;;;;;;18.90;14.73;;;15.70;99.90;;;;;;5078058;28;20432;-65
2021/10/01 01:36:51;;;;;;;21.53;15.80;;;15.70;99.90;;;;;;5096636;28;20486;-67
2021/10/01 01:39:18;;;;;;;24.33;15.93;;;15.70;99.90;;;;;;5078042;28;20437;-64
2021/10/01 01:41:45;;;;;;;22.20;15.43;;;15.70;99.90;;;;;;5096429;28;20874;-66
2021/10/01 01:44:11;;;;;;;20.30;15.20;;;15.60;99.90;;;;;;5077836;28;20509;-65
2021/10/01 01:46:40;;;;;;;22.30;16.00;;;15.60;99.90;;;;;;5096318;28;20516;-65
2021/10/01 01:49:07;;;;;;;22.60;16.40;;;15.70;99.90;;;;;;5095891;28;20471;-64
2021/10/01 01:51:34;;;;;;;22.23;15.60;;;15.70;99.90;;;;;;5096247;28;20421;-64
2021/10/01 01:54:00;;;;;;;22.27;16.33;;;15.70;99.90;;;;;;5077596;28;20437;-66
2021/10/01 01:56:29;;;;;;;22.63;14.73;;;15.70;99.90;;;;;;5096099;28;20444;-66
2021/10/01 01:58:56;;;;;;;21.30;15.87;;;15.70;99.90;;;;;;5096013;28;20831;-64
2021/10/01 02:01:24;;;;;;;23.47;16.60;;;15.70;99.90;;;;;;5096058;28;20733;-65
2021/10/01 02:03:50;;;;;;;21.47;15.10;;;15.70;99.90;;;;;;5095708;28;20425;-66
2021/10/01 02:06:17;;;;;;;21.20;15.00;;;15.70;99.90;;;;;;5095878;28;20511;-66
2021/10/01 02:08:45;;;;;;;19.27;15.90;;;15.60;99.90;;;;;;5095577;28;20456;-66
2021/10/01 02:11:12;;;;;;;22.37;15.87;;;15.60;99.90;;;;;;5095662;28;20452;-64
2021/10/01 02:13:40;;;;;;;23.73;16.23;;;15.60;99.90;;;;;;5095577;28;20433;-64
2021/10/01 02:16:08;;;;;;;16.83;13.50;;;15.60;99.90;;;;;;5095560;28;20405;-64
2021/10/01 02:18:36;;;;;;;20.80;15.47;;;15.60;99.90;;;;;;5095484;28;20468;-64
2021/10/01 02:21:03;;;;;;;21.50;14.83;;;15.60;99.90;;;;;;5095513;28;20810;-64
2021/10/01 02:23:29;;;;;;;21.87;16.07;;;15.60;99.90;;;;;;5095329;28;20766;-64
2021/10/01 02:28:57;;;;;;;21.30;15.10;;;15.60;99.90;;;;;;5095461;28;20215;-64
2021/10/01 02:31:44;;;;;;;21.30;16.13;;;15.60;99.90;;;;;;5095524;28;20891;-64
2021/10/01 02:34:11;;;;;;;17.43;13.57;;;15.60;99.90;;;;;;5095125;28;20433;-67
2021/10/01 02:36:37;;;;;;;17.83;14.77;;;15.60;99.90;;;;;;5095277;28;20421;-66
2021/10/01 02:39:03;;;;;;;21.97;15.17;;;15.60;99.90;;;;;;5094576;28;20793;-65
2021/10/01 02:41:28;;;;;;;20.63;16.70;;;15.60;99.90;;;;;;5095317;28;20542;-66
2021/10/01 02:43:54;;;;;;;23.37;14.70;;;15.60;99.90;;;;;;5076659;28;20502;-65
2021/10/01 02:46:20;;;;;;;20.73;15.70;;;15.60;99.90;;;;;;5095042;28;20173;-64
2021/10/01 02:48:45;;;;;;;20.13;15.30;;;15.60;99.90;;;;;;5094693;28;20640;-64
2021/10/01 02:51:17;;;;;;;23.53;14.93;;;15.60;99.90;;;;;;5094973;28;20183;-64
2021/10/01 02:53:55;;;;;;;19.53;15.40;;;15.50;99.90;;;;;;5094750;28;20227;-64
2021/10/01 02:56:27;;;;;;;20.50;14.43;;;15.50;99.90;;;;;;5094999;28;20936;-64
2021/10/01 02:58:59;;;;;;;17.67;14.40;;;15.50;99.90;;;;;;5094701;28;20395;-66
2021/10/01 03:01:29;;;;;;;20.40;14.50;;;15.50;99.90;;;;;;5076430;28;20424;-64
2021/10/01 03:04:00;;;;;;;21.70;15.60;;;15.50;99.90;;;;;;5094488;28;20407;-64
2021/10/01 03:06:30;;;;;;;20.77;15.33;;;15.50;99.90;;;;;;5094893;28;20405;-67
2021/10/01 03:08:56;;;;;;;18.77;14.23;;;15.50;99.90;;;;;;5076183;28;20465;-64
2021/10/01 03:11:30;;;;;;;18.17;14.43;;;15.50;99.90;;;;;;5094631;28;20453;-66
2021/10/01 03:13:57;;;;;;;19.70;15.30;;;15.50;99.90;;;;;;5094399;28;20422;-64
2021/10/01 03:16:24;;;;;;;19.03;13.67;;;15.50;99.90;;;;;;5076266;28;20838;-66
2021/10/01 03:18:51;;;;;;;16.07;13.70;;;15.50;99.90;;;;;;5094217;28;20469;-67
2021/10/01 03:21:19;;;;;;;20.03;12.90;;;15.50;99.90;;;;;;5076244;28;20428;-64
2021/10/01 03:23:46;;;;;;;22.17;14.47;;;15.60;99.90;;;;;;5094203;28;20947;-64
2021/10/01 03:26:14;;;;;;;21.37;13.30;;;15.60;99.90;;;;;;5094367;28;20933;-66
2021/10/01 03:28:42;;;;;;;21.50;15.50;;;15.60;99.90;;;;;;5075980;28;20439;-66
2021/10/01 03:31:08;;;;;;;18.50;13.87;;;15.60;99.90;;;;;;5094150;28;20441;-66
2021/10/01 03:33:34;;;;;;;19.43;14.17;;;15.70;99.90;;;;;;5093806;28;20433;-66
2021/10/01 03:36:01;;;;;;;17.60;13.00;;;15.70;99.90;;;;;;5094077;28;20397;-64
2021/10/01 03:38:26;;;;;;;20.67;14.93;;;15.60;99.90;;;;;;5093987;28;20405;-64
2021/10/01 03:40:53;;;;;;;17.90;14.07;;;15.60;99.90;;;;;;5093857;28;20423;-67
2021/10/01 03:43:24;;;;;;;19.87;13.70;;;15.60;99.90;;;;;;5075570;28;20222;-66
2021/10/01 03:45:50;;;;;;;18.80;14.27;;;15.60;99.90;;;;;;5075883;28;20778;-67
2021/10/01 03:48:16;;;;;;;20.13;15.37;;;15.60;99.90;;;;;;5075558;28;20399;-64
2021/10/01 03:50:41;;;;;;;19.00;13.50;;;15.60;99.90;;;;;;5092993;28;20463;-66
2021/10/01 03:53:07;;;;;;;19.67;14.10;;;15.60;99.90;;;;;;5093752;28;20520;-65
2021/10/01 03:55:33;;;;;;;18.53;14.83;;;15.60;99.90;;;;;;5093717;28;20216;-65
2021/10/01 03:57:59;;;;;;;17.17;13.60;;;15.60;99.90;;;;;;5075466;28;20207;-65
2021/10/01 04:00:25;;;;;;;17.63;14.00;;;15.60;99.90;;;;;;5093608;28;20417;-64
2021/10/01 04:02:50;;;;;;;16.57;13.07;;;15.60;99.90;;;;;;5093623;28;20176;-66
2021/10/01 04:05:16;;;;;;;18.37;13.90;;;15.60;99.90;;;;;;5075340;28;20200;-66
2021/10/01 04:07:43;;;;;;;20.50;15.10;;;15.60;99.90;;;;;;5075683;28;20180;-64
2021/10/01 04:10:10;;;;;;;20.10;14.00;;;15.60;99.90;;;;;;5075283;28;20476;-67
2021/10/01 04:12:36;;;;;;;17.50;13.50;;;15.60;99.90;;;;;;5075496;28;20424;-66
2021/10/01 04:15:03;;;;;;;18.07;13.77;;;15.60;99.90;;;;;;5075236;28;20560;-64
2021/10/01 04:17:28;;;;;;;16.97;13.17;;;15.50;99.90;;;;;;5093652;28;20456;-64
2021/10/01 04:19:54;;;;;;;18.57;13.90;;;15.50;99.90;;;;;;5093276;28;20396;-67
2021/10/01 04:22:19;;;;;;;18.50;13.67;;;15.50;99.90;;;;;;5075383;28;20223;-64
2021/10/01 04:24:45;;;;;;;18.03;13.53;;;15.50;99.90;;;;;;5075175;28;20266;-64
2021/10/01 04:27:11;;;;;;;18.67;13.20;;;15.50;99.90;;;;;;5093765;28;20169;-66
2021/10/01 04:29:36;;;;;;;19.40;14.10;;;15.50;99.90;;;;;;5093187;28;20208;-64
2021/10/01 04:32:05;;;;;;;18.47;14.73;;;15.50;99.90;;;;;;5109726;28;20267;-66
2021/10/01 04:34:34;;;;;;;18.80;13.47;;;15.50;99.90;;;;;;5112233;28;20594;-66
2021/10/01 04:37:00;;;;;;;21.00;13.80;;;15.50;99.90;;;;;;5095564;28;20469;-66
2021/10/01 04:39:26;;;;;;;16.53;13.30;;;15.50;99.90;;;;;;5113606;28;20940;-64
2021/10/01 04:41:51;;;;;;;15.97;12.80;;;15.60;99.90;;;;;;5113935;28;20199;-66
2021/10/01 04:44:18;;;;;;;17.90;13.90;;;15.50;99.90;;;;;;5113568;28;20244;-67
2021/10/01 04:46:44;;;;;;;18.90;13.40;;;15.50;99.90;;;;;;5113754;28;20171;-66
2021/10/01 04:49:11;;;;;;;18.03;13.10;;;15.50;99.90;;;;;;5095161;28;20474;-64
2021/10/01 04:51:37;;;;;;;17.20;14.20;;;15.50;99.90;;;;;;5113676;28;20412;-68
2021/10/01 04:54:02;;;;;;;19.17;13.73;;;15.60;99.90;;;;;;5113369;28;20431;-66
2021/10/01 04:56:28;;;;;;;18.03;13.17;;;15.60;99.90;;;;;;5113747;28;20175;-67
2021/10/01 04:58:54;;;;;;;18.00;13.23;;;15.60;99.90;;;;;;5095107;28;20242;-66
2021/10/01 05:01:20;;;;;;;19.47;14.10;;;15.60;99.90;;;;;;5115198;28;20175;-64
2021/10/01 05:03:46;;;;;;;16.37;12.60;;;15.60;99.90;;;;;;5117205;28;20286;-66
2021/10/01 05:06:12;;;;;;;17.27;13.40;;;15.60;99.90;;;;;;5098847;28;20522;-66
2021/10/01 05:08:37;;;;;;;22.03;14.00;;;15.60;99.90;;;;;;5117176;28;20188;-64
2021/10/01 05:11:03;;;;;;;20.90;14.10;;;15.70;99.90;;;;;;5117263;28;20180;-67
2021/10/01 05:13:28;;;;;;;21.70;13.67;;;15.60;99.90;;;;;;5117185;28;20188;-67
2021/10/01 05:15:54;;;;;;;19.10;13.23;;;15.60;99.90;;;;;;5116953;28;20229;-64
2021/10/01 05:18:22;;;;;;;19.57;14.90;;;15.60;99.90;;;;;;5115241;28;20227;-67
2021/10/01 05:20:47;;;;;;;20.73;13.70;;;15.60;99.90;;;;;;5115514;28;20179;-68
2021/10/01 05:23:13;;;;;;;17.33;12.80;;;15.60;99.90;;;;;;5116337;28;20404;-67
2021/10/01 05:25:38;;;;;;;18.77;13.23;;;15.50;99.90;;;;;;5114575;28;20222;-65
2021/10/01 05:28:04;;;;;;;40.50;29.83;;;15.50;99.90;;;;;;5116636;28;20175;-67
2021/10/01 05:30:30;;;;;;;22.93;15.47;;;15.50;99.90;;;;;;5116234;28;20252;-64
2021/10/01 05:32:55;;;;;;;22.20;15.47;;;15.50;99.90;;;;;;5116484;28;20180;-65
2021/10/01 05:35:21;;;;;;;19.93;14.97;;;15.60;99.90;;;;;;5116701;28;20255;-67
2021/10/01 05:37:47;;;;;;;21.40;15.73;;;15.60;99.90;;;;;;5098547;28;20172;-66
2021/10/01 05:40:13;;;;;;;22.17;16.00;;;15.60;99.90;;;;;;5116515;28;20249;-64
2021/10/01 05:42:38;;;;;;;23.10;17.23;;;15.60;99.90;;;;;;5114977;28;20199;-64
2021/10/01 05:45:06;;;;;;;18.77;14.07;;;15.60;99.90;;;;;;5115977;28;20428;-64
2021/10/01 05:47:32;;;;;;;18.70;14.30;;;15.60;99.90;;;;;;5116874;28;20175;-67
2021/10/01 05:50:03;;;;;;;20.77;15.27;;;15.60;99.90;;;;;;5116145;28;20831;-65
2021/10/01 05:54:57;;;;;;;20.90;16.20;;;15.60;99.90;;;;;;5096735;28;20800;-66
2021/10/01 05:57:23;;;;;;;20.67;15.93;;;15.70;99.90;;;;;;5098939;28;20420;-68
2021/10/01 05:59:49;;;;;;;21.30;15.10;;;15.70;99.90;;;;;;5080766;28;20343;-69
2021/10/01 06:02:16;;;;;;;19.93;15.40;;;15.70;99.90;;;;;;5104819;28;20432;-67
2021/10/01 06:04:43;;;;;;;20.60;14.30;;;15.70;99.90;;;;;;5097798;28;20241;-69
2021/10/01 06:07:10;;;;;;;23.00;16.53;;;15.80;99.90;;;;;;5108285;28;20484;-68
2021/10/01 06:09:36;;;;;;;25.17;16.10;;;15.80;99.90;;;;;;5086550;28;20443;-65
2021/10/01 06:12:02;;;;;;;23.30;16.20;;;15.80;99.90;;;;;;5088318;28;20759;-64
2021/10/01 06:14:29;;;;;;;18.70;14.60;;;15.80;99.90;;;;;;5089326;28;20213;-65
2021/10/01 06:16:54;;;;;;;24.40;16.53;;;15.90;99.90;;;;;;5095808;28;20428;-65
2021/10/01 06:19:21;;;;;;;23.60;17.57;;;15.90;99.90;;;;;;5095528;28;20840;-64
2021/10/01 06:21:47;;;;;;;22.00;16.47;;;15.90;99.90;;;;;;5103216;28;20184;-68
2021/10/01 06:24:13;;;;;;;26.07;17.17;;;15.90;99.90;;;;;;5094486;28;20452;-64
2021/10/01 06:26:39;;;;;;;30.87;18.80;;;15.90;99.90;;;;;;5096227;28;20428;-64
2021/10/01 06:29:04;;;;;;;23.83;16.57;;;16.00;99.90;;;;;;5098777;28;20227;-67
2021/10/01 06:31:30;;;;;;;25.97;17.30;;;16.00;99.90;;;;;;5081394;28;20188;-64
2021/10/01 06:33:56;;;;;;;23.90;17.27;;;16.00;99.90;;;;;;5112127;28;20299;-67
2021/10/01 06:36:23;;;;;;;26.20;17.40;;;16.00;99.90;;;;;;5077915;28;20449;-64
2021/10/01 06:38:52;;;;;;;24.20;17.20;;;16.00;99.90;;;;;;5100741;28;20298;-67
2021/10/01 06:41:18;;;;;;;26.93;18.43;;;16.10;99.90;;;;;;5093546;28;20444;-64
2021/10/01 06:43:44;;;;;;;27.10;18.27;;;16.10;99.90;;;;;;5076093;28;20503;-64
2021/10/01 06:46:22;;;;;;;27.40;18.27;;;16.10;99.90;;;;;;5086033;28;20450;-64
2021/10/01 08:20:47;;;;;;;32.40;21.30;;;17.10;99.90;;;;;;5095013;28;20503;-66
2021/10/01 08:23:14;;;;;;;30.87;20.30;;;17.20;99.90;;;;;;5082308;28;20540;-67
2021/10/01 08:25:40;;;;;;;33.57;23.50;;;17.20;99.90;;;;;;5069166;28;20417;-69
2021/10/01 08:28:06;;;;;;;84.60;49.30;;;17.40;99.90;;;;;;5088715;28;20801;-69
2021/10/01 08:30:33;;;;;;;35.83;25.07;;;17.40;99.90;;;;;;5094197;28;20463;-70
2021/10/01 08:32:59;;;;;;;28.07;19.77;;;17.50;99.90;;;;;;5094796;28;20440;-67
2021/10/01 08:35:25;;;;;;;26.90;20.17;;;17.60;99.90;;;;;;5089201;28;20494;-69
2021/10/01 08:37:52;;;;;;;32.33;20.00;;;17.60;99.90;;;;;;5068147;28;20583;-70
2021/10/01 08:40:19;;;;;;;26.50;18.90;;;17.70;99.90;;;;;;5087185;28;20563;-69
2021/10/01 08:42:46;;;;;;;20.70;15.33;;;18.00;99.90;;;;;;5083463;28;20439;-67
2021/10/01 08:45:14;;;;;;;20.47;15.40;;;18.20;99.90;;;;;;5065765;28;20472;-69
2021/10/01 08:47:41;;;;;;;20.10;14.70;;;18.40;99.90;;;;;;5085930;28;20455;-67
2021/10/01 08:50:10;;;;;;;20.50;16.07;;;18.50;99.90;;;;;;5096347;28;20526;-70
2021/10/01 08:52:36;;;;;;;25.73;17.10;;;18.50;99.90;;;;;;5091577;28;20541;-66
2021/10/01 08:55:05;;;;;;;19.70;15.57;;;18.40;99.90;;;;;;5099275;28;20471;-66
2021/10/01 08:57:31;;;;;;;20.50;15.20;;;18.50;99.90;;;;;;5087629;28;20491;-67
2021/10/01 09:00:06;;;;;;;20.20;15.60;;;18.40;99.90;;;;;;5093976;28;20494;-66
2021/10/01 09:02:31;;;;;;;21.63;17.40;;;18.50;99.90;;;;;;5088266;28;20432;-66
2021/10/01 09:04:58;;;;;;;19.00;14.53;;;18.60;99.90;;;;;;5085942;28;20463;-70
2021/10/01 09:07:25;;;;;;;20.77;15.77;;;18.70;99.90;;;;;;5095822;28;20206;-69
2021/10/01 09:09:53;;;;;;;22.63;16.17;;;18.80;99.90;;;;;;5077676;28;20853;-66
2021/10/01 09:12:20;;;;;;;21.50;15.30;;;18.90;99.90;;;;;;5094663;28;20432;-68
2021/10/01 09:14:48;;;;;;;18.83;15.57;;;19.00;99.90;;;;;;5094810;28;20471;-70
2021/10/01 09:17:17;;;;;;;17.60;14.67;;;19.10;99.90;;;;;;5071223;28;20472;-66
2021/10/01 09:19:43;;;;;;;19.70;15.17;;;19.10;99.90;;;;;;5055069;28;20466;-71
2021/10/01 09:22:09;;;;;;;25.97;16.33;;;19.20;99.90;;;;;;5052412;28;20409;-67
2021/10/01 09:24:41;;;;;;;19.70;14.87;;;19.20;99.90;;;;;;5050821;28;20462;-70
2021/10/01 09:27:09;;;;;;;20.10;15.23;;;19.30;99.90;;;;;;5052238;28;20185;-67
2021/10/01 09:29:37;;;;;;;22.20;15.90;;;19.30;99.90;;;;;;5054035;28;21063;-70
2021/10/01 09:32:13;;;;;;;22.63;17.40;;;19.30;99.90;;;;;;5065997;28;20422;-69
2021/10/01 09:34:47;;;;;;;25.13;16.00;;;19.30;99.90;;;;;;5055490;28;20464;-67
2021/10/01 09:37:30;;;;;;;21.57;16.70;;;19.20;99.90;;;;;;5049025;28;20491;-71
2021/10/01 09:40:05;;;;;;;22.33;15.80;;;19.10;99.90;;;;;;5053741;28;20472;-71
2021/10/01 09:42:47;;;;;;;23.73;16.00;;;19.10;99.90;;;;;;5052260;28;20538;-67
2021/10/01 09:45:15;;;;;;;24.60;16.33;;;19.00;99.90;;;;;;5055300;28;20810;-67
2021/10/01 09:47:46;;;;;;;20.90;15.47;;;18.90;99.90;;;;;;5045966;28;20432;-67
2021/10/01 09:50:26;;;;;;;21.30;16.40;;;18.90;99.90;;;;;;5048164;28;20472;-72
2021/10/01 09:52:58;;;;;;;26.47;16.10;;;18.90;99.90;;;;;;5043280;28;20466;-67
2021/10/01 09:55:41;;;;;;;22.63;15.50;;;18.90;99.90;;;;;;5042763;28;20469;-67
2021/10/01 09:58:13;;;;;;;24.00;15.70;;;18.90;99.90;;;;;;5051607;28;20546;-67
2021/10/01 10:00:47;;;;;;;20.30;14.97;;;18.90;99.90;;;;;;5052761;28;20493;-71
2021/10/01 10:03:28;;;;;;;18.80;14.57;;;18.90;99.90;;;;;;5052425;28;20432;-68
2021/10/01 10:06:00;;;;;;;23.30;15.87;;;19.00;99.90;;;;;;5051687;28;20448;-71
2021/10/01 10:08:32;;;;;;;22.93;16.60;;;19.00;99.90;;;;;;5056138;28;20450;-71
2021/10/01 10:10:59;;;;;;;20.10;14.87;;;19.10;99.90;;;;;;5050967;28;20538;-67
2021/10/01 10:13:54;;;;;;;18.60;13.30;;;19.20;99.90;;;;;;5046438;28;20427;-70
2021/10/01 10:16:22;;;;;;;19.27;15.13;;;19.20;99.90;;;;;;5046567;28;20443;-71
2021/10/01 10:18:51;;;;;;;17.47;13.67;;;19.20;99.90;;;;;;5091015;28;20515;-71
2021/10/01 10:21:18;;;;;;;20.10;14.80;;;19.30;99.90;;;;;;5068791;28;20537;-72
2021/10/01 10:23:44;;;;;;;20.40;15.00;;;19.30;99.90;;;;;;5093038;28;20463;-71
2021/10/01 10:26:10;;;;;;;21.00;16.37;;;19.30;99.90;;;;;;5083226;28;20445;-67
2021/10/01 10:28:39;;;;;;;19.63;14.63;;;19.30;99.90;;;;;;5093569;28;20863;-70
2021/10/01 10:31:08;;;;;;;19.67;14.83;;;19.40;99.90;;;;;;5077854;28;20451;-68
2021/10/01 10:33:47;;;;;;;21.37;14.93;;;19.40;99.90;;;;;;5087108;28;20455;-67
2021/10/01 10:36:41;;;;;;;20.87;15.33;;;19.40;99.90;;;;;;5081187;28;20447;-67
2021/10/01 10:39:12;;;;;;;18.50;14.00;;;19.50;99.90;;;;;;5054958;28;20550;-67
2021/10/01 10:42:18;;;;;;;16.00;12.00;;;19.50;99.90;;;;;;5062063;28;20446;-67
2021/10/01 10:44:54;;;;;;;16.50;12.13;;;19.40;99.90;;;;;;5018362;28;21036;-70
2021/10/01 10:47:38;;;;;;;14.23;10.70;;;19.40;99.90;;;;;;5068504;28;20450;-68
2021/10/01 10:50:26;;;;;;;13.70;10.30;;;19.40;99.90;;;;;;5063947;28;21001;-66
2021/10/01 10:53:04;;;;;;;12.87;10.90;;;19.40;99.90;;;;;;5065853;28;20427;-69
2021/10/01 10:55:36;;;;;;;19.20;11.13;;;19.40;99.90;;;;;;5066348;28;20468;-65
2021/10/01 10:58:24;;;;;;;16.53;11.40;;;19.40;99.90;;;;;;5086881;28;20520;-71
2021/10/01 11:00:54;;;;;;;15.20;11.47;;;19.40;99.90;;;;;;5066201;28;20426;-70
2021/10/01 11:03:23;;;;;;;14.10;10.50;;;19.30;99.90;;;;;;5051866;28;20776;-70
2021/10/01 11:06:11;;;;;;;17.37;13.27;;;19.30;99.90;;;;;;5070591;28;20774;-66
2021/10/01 11:08:47;;;;;;;19.27;12.03;;;19.40;99.90;;;;;;5077586;28;20553;-66
2021/10/01 11:11:34;;;;;;;13.90;11.97;;;19.40;99.90;;;;;;5067419;28;20928;-66
2021/10/01 11:14:18;;;;;;;14.60;11.70;;;19.40;99.90;;;;;;5063377;28;20556;-66
2021/10/01 11:17:05;;;;;;;14.50;11.60;;;19.40;99.90;;;;;;5043912;28;20466;-70
2021/10/01 11:19:46;;;;;;;15.07;10.23;;;19.40;99.90;;;;;;4980244;28;20987;-70
2021/10/01 11:22:26;;;;;;;13.40;10.70;;;19.40;99.90;;;;;;5022837;28;20935;-69
2021/10/01 11:24:59;;;;;;;12.93;9.80;;;19.50;99.90;;;;;;5073490;28;20461;-70
2021/10/01 11:27:26;;;;;;;10.67;8.50;;;19.60;99.90;;;;;;5070288;28;20454;-66
2021/10/01 11:29:51;;;;;;;12.57;9.80;;;19.70;99.90;;;;;;5060054;28;20453;-70
2021/10/01 11:32:18;;;;;;;14.20;11.80;;;19.70;99.90;;;;;;5086362;28;20431;-67
2021/10/01 11:34:59;;;;;;;16.90;10.23;;;19.80;99.90;;;;;;5085955;28;20194;-69
2021/10/01 11:37:35;;;;;;;11.90;9.37;;;19.80;99.90;;;;;;5088475;28;20440;-69
2021/10/01 11:40:08;;;;;;;14.23;9.97;;;19.90;99.90;;;;;;5062888;28;20912;-66
2021/10/01 11:42:40;;;;;;;14.00;10.33;;;19.90;99.90;;;;;;5072793;28;20823;-66
2021/10/01 11:45:32;;;;;;;10.63;8.67;;;20.00;99.90;;;;;;5062831;28;20772;-70
2021/10/01 11:48:03;;;;;;;12.87;9.53;;;20.00;99.90;;;;;;5063471;28;20446;-66
2021/10/01 11:50:39;;;;;;;11.17;8.90;;;20.00;99.90;;;;;;5081278;28;20479;-69
2021/10/01 11:53:26;;;;;;;12.63;11.07;;;20.10;99.90;;;;;;5091006;28;20426;-67
2021/10/01 11:56:03;;;;;;;9.93;8.80;;;20.10;99.90;;;;;;5071115;28;20412;-70
2021/10/01 11:58:32;;;;;;;10.20;8.33;;;20.10;99.90;;;;;;5086062;28;20456;-69
2021/10/01 12:01:15;;;;;;;10.40;9.30;;;20.10;99.90;;;;;;5061942;28;20457;-71
2021/10/01 12:03:49;;;;;;;11.63;9.13;;;20.10;99.90;;;;;;5080657;28;20462;-71
2021/10/01 12:06:23;;;;;;;11.70;9.17;;;20.10;99.90;;;;;;5072999;28;20447;-69
2021/10/01 12:09:00;;;;;;;12.67;9.53;;;20.10;99.90;;;;;;5090290;28;20436;-67
2021/10/01 12:11:29;;;;;;;12.53;9.80;;;20.00;99.90;;;;;;5082575;28;20442;-71
2021/10/01 12:13:55;;;;;;;11.67;8.37;;;20.00;99.90;;;;;;5092011;28;20490;-67
2021/10/01 12:16:21;;;;;;;14.97;8.80;;;20.00;99.90;;;;;;5083809;28;20908;-67
2021/10/01 12:18:57;;;;;;;13.37;9.50;;;20.10;99.90;;;;;;5090944;28;20586;-68
2021/10/01 12:21:25;;;;;;;11.40;9.53;;;20.10;99.90;;;;;;5074158;28;20586;-69
2021/10/01 12:24:12;;;;;;;12.77;9.00;;;20.20;99.90;;;;;;5027769;28;20909;-70
2021/10/01 12:26:57;;;;;;;10.43;8.93;;;20.30;99.90;;;;;;5028751;28;20437;-66
2021/10/01 12:29:25;;;;;;;9.60;8.47;;;20.30;99.90;;;;;;5027275;28;21423;-70
2021/10/01 12:32:02;;;;;;;11.80;9.10;;;20.30;99.90;;;;;;5067870;28;20786;-70
2021/10/01 12:34:32;;;;;;;11.03;9.20;;;20.40;99.90;;;;;;5080756;28;21314;-70
2021/10/01 12:37:30;;;;;;;13.00;9.00;;;20.40;99.90;;;;;;5234765;22;20435;-89
2021/10/01 12:40:00;;;;;;;12.13;8.90;;;20.40;99.90;;;;;;5079549;28;20452;-92
2021/10/01 12:42:31;;;;;;;10.00;8.53;;;20.40;99.90;;;;;;5070029;28;20464;-93
2021/10/01 12:44:58;;;;;;;8.60;7.70;;;20.40;99.90;;;;;;5062963;28;20423;-90
2021/10/01 12:47:24;;;;;;;13.10;8.70;;;20.40;99.90;;;;;;5069167;28;20537;-91
2021/10/01 12:50:05;;;;;;;9.90;7.87;;;20.40;99.90;;;;;;5053552;28;21090;-88
2021/10/01 12:52:32;;;;;;;8.90;7.63;;;20.40;99.90;;;;;;5061483;28;20200;-90
2021/10/01 12:55:09;;;;;;;8.67;6.50;;;20.40;99.90;;;;;;5079727;28;20470;-87
2021/10/01 12:57:47;;;;;;;12.47;8.37;;;20.40;99.90;;;;;;5048366;28;20498;-92
2021/10/01 13:00:30;;;;;;;9.63;6.97;;;20.40;99.90;;;;;;5072049;28;20484;-90
2021/10/01 13:10:15;;;;;;;8.77;6.77;;;20.40;99.90;;;;;;5061115;28;20927;-88
2021/10/01 13:16:26;;;;;;;7.57;6.87;;;20.40;99.90;;;;;;5063024;28;20426;-90
2021/10/01 13:19:35;;;;;;;8.00;7.20;;;20.40;99.90;;;;;;5046001;28;20461;-90
2021/10/01 13:28:49;;;;;;;10.70;7.30;;;20.50;99.90;;;;;;5067765;28;20544;-91
2021/10/01 13:31:17;;;;;;;17.00;7.67;;;20.50;99.90;;;;;;5076002;28;20444;-93
2021/10/01 13:33:43;;;;;;;12.17;7.73;;;20.50;99.90;;;;;;5075634;28;20460;-90
2021/10/01 13:40:03;;;;;;;10.50;7.40;;;20.50;99.90;;;;;;5072320;28;20667;-93
2021/10/01 13:42:28;;;;;;;9.50;7.47;;;20.50;99.90;;;;;;5052357;28;20456;-90
